Terminal Aerodrome Forecast
Issued by NWS

Home | Current Version | Previous Version | Text Only | Print | Product List | Glossary On
Versions: 1 2 3 4 5 6 7 8 9 10 11 12 13 14 15
000
FTUS44 KTSA 031100
TAFRVS
TAF
KRVS 031120Z 0312/0412 19010G17KT 4SM -DZ BR OVC004
     FM031800 23014KT 5SM BR OVC015
     FM040100 31012G22KT P6SM SCT015 OVC050 PROB30 0401/0406 4SM -RA
      BR OVC015
     FM040600 01011G18KT 3SM -FZRA OVC010
     FM041000 01012G21KT 3SM -FZRAPL OVC007=

USA.gov is the U.S. government's official web portal to all federal, state and local government web resources and services.